sensor_id;sensor_type;location;lat;lon;timestamp;P1;durP1;ratioP1;P2;durP2;ratioP2
67867;SDS011;54672;46.096;14.470;2024-01-15T00:00:32;15.77;;;8.15;;
67867;SDS011;54672;46.096;14.470;2024-01-15T00:02:58;18.17;;;8.15;;
67867;SDS011;54672;46.096;14.470;2024-01-15T00:05:24;16.00;;;7.35;;
67867;SDS011;54672;46.096;14.470;2024-01-15T00:07:49;22.08;;;10.40;;
67867;SDS011;54672;46.096;14.470;2024-01-15T00:10:14;24.75;;;10.32;;
67867;SDS011;54672;46.096;14.470;2024-01-15T00:12:40;28.42;;;11.10;;
67867;SDS011;54672;46.096;14.470;2024-01-15T00:15:05;26.48;;;12.27;;
67867;SDS011;54672;46.096;14.470;2024-01-15T00:17:31;29.10;;;11.45;;
67867;SDS011;54672;46.096;14.470;2024-01-15T00:19:57;24.52;;;11.40;;
67867;SDS011;54672;46.096;14.470;2024-01-15T00:22:23;20.40;;;9.38;;
67867;SDS011;54672;46.096;14.470;2024-01-15T00:24:50;22.98;;;9.43;;
67867;SDS011;54672;46.096;14.470;2024-01-15T00:27:15;23.00;;;8.82;;
67867;SDS011;54672;46.096;14.470;2024-01-15T00:29:41;22.70;;;8.82;;
67867;SDS011;54672;46.096;14.470;2024-01-15T00:32:06;21.80;;;8.98;;
67867;SDS011;54672;46.096;14.470;2024-01-15T00:34:32;21.15;;;8.55;;
67867;SDS011;54672;46.096;14.470;2024-01-15T00:36:57;17.52;;;8.10;;
67867;SDS011;54672;46.096;14.470;2024-01-15T00:39:22;21.67;;;9.70;;
67867;SDS011;54672;46.096;14.470;2024-01-15T00:41:48;17.23;;;7.75;;
67867;SDS011;54672;46.096;14.470;2024-01-15T00:44:14;21.45;;;8.32;;
67867;SDS011;54672;46.096;14.470;2024-01-15T00:46:43;20.10;;;9.27;;
67867;SDS011;54672;46.096;14.470;2024-01-15T00:49:10;19.65;;;7.82;;
67867;SDS011;54672;46.096;14.470;2024-01-15T00:51:36;19.95;;;8.70;;
67867;SDS011;54672;46.096;14.470;2024-01-15T00:54:02;17.98;;;7.78;;
67867;SDS011;54672;46.096;14.470;2024-01-15T00:56:28;22.10;;;8.35;;
67867;SDS011;54672;46.096;14.470;2024-01-15T00:58:54;18.63;;;7.68;;
67867;SDS011;54672;46.096;14.470;2024-01-15T01:01:19;19.13;;;7.28;;
67867;SDS011;54672;46.096;14.470;2024-01-15T01:03:45;17.55;;;8.60;;
67867;SDS011;54672;46.096;14.470;2024-01-15T01:06:10;17.67;;;7.68;;
67867;SDS011;54672;46.096;14.470;2024-01-15T01:08:35;15.00;;;7.13;;
67867;SDS011;54672;46.096;14.470;2024-01-15T01:11:01;16.75;;;7.38;;
67867;SDS011;54672;46.096;14.470;2024-01-15T01:13:26;17.10;;;7.68;;
67867;SDS011;54672;46.096;14.470;2024-01-15T01:15:52;19.40;;;8.18;;
67867;SDS011;54672;46.096;14.470;2024-01-15T01:18:17;16.45;;;7.32;;
67867;SDS011;54672;46.096;14.470;2024-01-15T01:20:42;15.20;;;7.05;;
67867;SDS011;54672;46.096;14.470;2024-01-15T01:23:08;21.85;;;7.78;;
67867;SDS011;54672;46.096;14.470;2024-01-15T01:25:33;15.95;;;7.00;;
67867;SDS011;54672;46.096;14.470;2024-01-15T01:27:59;13.13;;;6.57;;
67867;SDS011;54672;46.096;14.470;2024-01-15T01:30:24;15.27;;;6.78;;
67867;SDS011;54672;46.096;14.470;2024-01-15T01:32:50;15.68;;;6.47;;
67867;SDS011;54672;46.096;14.470;2024-01-15T01:35:15;15.43;;;6.43;;
67867;SDS011;54672;46.096;14.470;2024-01-15T01:37:40;17.38;;;8.13;;
67867;SDS011;54672;46.096;14.470;2024-01-15T01:40:06;17.88;;;7.63;;
67867;SDS011;54672;46.096;14.470;2024-01-15T01:42:32;17.98;;;6.93;;
67867;SDS011;54672;46.096;14.470;2024-01-15T01:44:57;17.67;;;8.55;;
67867;SDS011;54672;46.096;14.470;2024-01-15T01:47:23;16.60;;;6.88;;
67867;SDS011;54672;46.096;14.470;2024-01-15T01:49:51;13.95;;;6.18;;
67867;SDS011;54672;46.096;14.470;2024-01-15T01:52:17;20.17;;;7.75;;
67867;SDS011;54672;46.096;14.470;2024-01-15T01:54:43;21.63;;;9.40;;
67867;SDS011;54672;46.096;14.470;2024-01-15T01:57:08;23.40;;;9.45;;
67867;SDS011;54672;46.096;14.470;2024-01-15T01:59:34;20.85;;;8.30;;
67867;SDS011;54672;46.096;14.470;2024-01-15T02:02:02;23.52;;;9.07;;
67867;SDS011;54672;46.096;14.470;2024-01-15T02:04:29;20.08;;;8.35;;
67867;SDS011;54672;46.096;14.470;2024-01-15T02:06:56;18.45;;;7.70;;
67867;SDS011;54672;46.096;14.470;2024-01-15T02:09:21;18.10;;;8.18;;
67867;SDS011;54672;46.096;14.470;2024-01-15T02:11:47;23.17;;;9.45;;
67867;SDS011;54672;46.096;14.470;2024-01-15T02:14:12;24.98;;;9.65;;
67867;SDS011;54672;46.096;14.470;2024-01-15T02:16:38;21.88;;;9.32;;
67867;SDS011;54672;46.096;14.470;2024-01-15T02:19:04;18.40;;;8.32;;
67867;SDS011;54672;46.096;14.470;2024-01-15T02:21:30;20.13;;;7.82;;
67867;SDS011;54672;46.096;14.470;2024-01-15T02:23:56;14.48;;;7.05;;
67867;SDS011;54672;46.096;14.470;2024-01-15T02:26:22;18.85;;;7.72;;
67867;SDS011;54672;46.096;14.470;2024-01-15T02:28:48;22.00;;;8.02;;
67867;SDS011;54672;46.096;14.470;2024-01-15T02:31:14;15.05;;;6.68;;
67867;SDS011;54672;46.096;14.470;2024-01-15T02:33:39;14.38;;;6.18;;
67867;SDS011;54672;46.096;14.470;2024-01-15T02:36:05;8.57;;;4.15;;
67867;SDS011;54672;46.096;14.470;2024-01-15T02:38:30;18.27;;;7.95;;
67867;SDS011;54672;46.096;14.470;2024-01-15T02:40:56;17.90;;;7.80;;
67867;SDS011;54672;46.096;14.470;2024-01-15T02:43:21;19.58;;;7.03;;
67867;SDS011;54672;46.096;14.470;2024-01-15T02:45:47;15.48;;;7.70;;
67867;SDS011;54672;46.096;14.470;2024-01-15T02:48:12;19.13;;;7.97;;
67867;SDS011;54672;46.096;14.470;2024-01-15T02:50:38;17.48;;;7.20;;
67867;SDS011;54672;46.096;14.470;2024-01-15T02:53:03;13.95;;;6.53;;
67867;SDS011;54672;46.096;14.470;2024-01-15T02:55:29;15.85;;;7.07;;
67867;SDS011;54672;46.096;14.470;2024-01-15T02:57:54;14.80;;;6.85;;
67867;SDS011;54672;46.096;14.470;2024-01-15T03:00:20;15.75;;;7.13;;
67867;SDS011;54672;46.096;14.470;2024-01-15T03:02:45;18.35;;;6.55;;
67867;SDS011;54672;46.096;14.470;2024-01-15T03:05:11;14.40;;;6.65;;
67867;SDS011;54672;46.096;14.470;2024-01-15T03:07:36;12.73;;;6.07;;
67867;SDS011;54672;46.096;14.470;2024-01-15T03:10:02;16.33;;;6.50;;
67867;SDS011;54672;46.096;14.470;2024-01-15T03:12:28;14.77;;;6.88;;
67867;SDS011;54672;46.096;14.470;2024-01-15T03:14:53;16.15;;;7.03;;
67867;SDS011;54672;46.096;14.470;2024-01-15T03:17:19;18.17;;;7.68;;
67867;SDS011;54672;46.096;14.470;2024-01-15T03:19:44;15.27;;;7.30;;
67867;SDS011;54672;46.096;14.470;2024-01-15T03:22:10;13.23;;;6.35;;
67867;SDS011;54672;46.096;14.470;2024-01-15T03:24:35;17.35;;;7.75;;
67867;SDS011;54672;46.096;14.470;2024-01-15T03:27:01;16.20;;;6.47;;
67867;SDS011;54672;46.096;14.470;2024-01-15T03:29:27;18.00;;;7.68;;
67867;SDS011;54672;46.096;14.470;2024-01-15T03:31:53;12.35;;;6.53;;
67867;SDS011;54672;46.096;14.470;2024-01-15T03:34:18;12.98;;;7.05;;
67867;SDS011;54672;46.096;14.470;2024-01-15T03:36:44;15.25;;;6.28;;
67867;SDS011;54672;46.096;14.470;2024-01-15T03:39:09;13.73;;;6.38;;
67867;SDS011;54672;46.096;14.470;2024-01-15T03:41:35;9.43;;;5.13;;
67867;SDS011;54672;46.096;14.470;2024-01-15T03:44:00;15.52;;;6.57;;
67867;SDS011;54672;46.096;14.470;2024-01-15T03:46:26;13.85;;;6.85;;
67867;SDS011;54672;46.096;14.470;2024-01-15T03:48:52;12.20;;;5.88;;
67867;SDS011;54672;46.096;14.470;2024-01-15T03:51:17;10.40;;;5.20;;
67867;SDS011;54672;46.096;14.470;2024-01-15T03:53:43;9.50;;;4.72;;
67867;SDS011;54672;46.096;14.470;2024-01-15T03:56:08;10.68;;;5.28;;
67867;SDS011;54672;46.096;14.470;2024-01-15T03:58:34;13.45;;;5.97;;
67867;SDS011;54672;46.096;14.470;2024-01-15T04:00:59;13.57;;;5.93;;
67867;SDS011;54672;46.096;14.470;2024-01-15T04:03:24;15.27;;;6.20;;
67867;SDS011;54672;46.096;14.470;2024-01-15T04:05:50;14.27;;;5.85;;
67867;SDS011;54672;46.096;14.470;2024-01-15T04:08:15;13.95;;;5.45;;
67867;SDS011;54672;46.096;14.470;2024-01-15T04:10:41;12.13;;;5.30;;
67867;SDS011;54672;46.096;14.470;2024-01-15T04:13:06;14.68;;;6.57;;
67867;SDS011;54672;46.096;14.470;2024-01-15T04:15:32;14.75;;;7.47;;
67867;SDS011;54672;46.096;14.470;2024-01-15T04:17:57;17.52;;;7.68;;
67867;SDS011;54672;46.096;14.470;2024-01-15T04:20:22;15.30;;;6.70;;
67867;SDS011;54672;46.096;14.470;2024-01-15T04:22:48;16.77;;;7.40;;
67867;SDS011;54672;46.096;14.470;2024-01-15T04:25:13;17.42;;;7.47;;
67867;SDS011;54672;46.096;14.470;2024-01-15T04:27:39;17.25;;;7.93;;
67867;SDS011;54672;46.096;14.470;2024-01-15T04:30:04;21.15;;;7.97;;
67867;SDS011;54672;46.096;14.470;2024-01-15T04:32:30;14.70;;;6.82;;
67867;SDS011;54672;46.096;14.470;2024-01-15T04:34:55;15.30;;;7.30;;
67867;SDS011;54672;46.096;14.470;2024-01-15T04:37:21;13.73;;;6.60;;
67867;SDS011;54672;46.096;14.470;2024-01-15T04:39:46;15.05;;;6.75;;
67867;SDS011;54672;46.096;14.470;2024-01-15T04:42:12;12.50;;;5.85;;
67867;SDS011;54672;46.096;14.470;2024-01-15T04:44:37;13.45;;;6.30;;
67867;SDS011;54672;46.096;14.470;2024-01-15T04:47:03;17.50;;;7.28;;
67867;SDS011;54672;46.096;14.470;2024-01-15T04:49:28;16.15;;;6.35;;
67867;SDS011;54672;46.096;14.470;2024-01-15T04:51:54;12.13;;;6.15;;
67867;SDS011;54672;46.096;14.470;2024-01-15T04:54:20;18.58;;;6.93;;
67867;SDS011;54672;46.096;14.470;2024-01-15T04:56:45;14.82;;;7.25;;
67867;SDS011;54672;46.096;14.470;2024-01-15T04:59:11;17.02;;;7.88;;
67867;SDS011;54672;46.096;14.470;2024-01-15T05:01:37;16.52;;;7.10;;
67867;SDS011;54672;46.096;14.470;2024-01-15T05:04:03;14.07;;;6.47;;
67867;SDS011;54672;46.096;14.470;2024-01-15T05:06:28;10.23;;;6.00;;
67867;SDS011;54672;46.096;14.470;2024-01-15T05:08:54;21.92;;;8.60;;
67867;SDS011;54672;46.096;14.470;2024-01-15T05:11:19;20.02;;;9.00;;
67867;SDS011;54672;46.096;14.470;2024-01-15T05:13:45;16.90;;;6.80;;
67867;SDS011;54672;46.096;14.470;2024-01-15T05:16:10;15.00;;;6.25;;
67867;SDS011;54672;46.096;14.470;2024-01-15T05:18:36;13.13;;;7.13;;
67867;SDS011;54672;46.096;14.470;2024-01-15T05:21:04;11.65;;;6.63;;
67867;SDS011;54672;46.096;14.470;2024-01-15T05:23:33;21.38;;;9.57;;
67867;SDS011;54672;46.096;14.470;2024-01-15T05:25:59;19.73;;;9.23;;
67867;SDS011;54672;46.096;14.470;2024-01-15T05:28:25;21.77;;;7.80;;
67867;SDS011;54672;46.096;14.470;2024-01-15T05:30:50;24.10;;;11.27;;
67867;SDS011;54672;46.096;14.470;2024-01-15T05:33:16;28.23;;;12.43;;
67867;SDS011;54672;46.096;14.470;2024-01-15T05:35:42;29.23;;;12.27;;
67867;SDS011;54672;46.096;14.470;2024-01-15T05:38:07;27.33;;;12.07;;
67867;SDS011;54672;46.096;14.470;2024-01-15T05:40:33;30.25;;;12.35;;
67867;SDS011;54672;46.096;14.470;2024-01-15T05:42:58;25.83;;;10.75;;
67867;SDS011;54672;46.096;14.470;2024-01-15T05:45:25;25.95;;;10.63;;
67867;SDS011;54672;46.096;14.470;2024-01-15T05:47:51;25.23;;;10.73;;
67867;SDS011;54672;46.096;14.470;2024-01-15T05:50:17;28.05;;;10.93;;
67867;SDS011;54672;46.096;14.470;2024-01-15T05:52:43;25.75;;;11.90;;
67867;SDS011;54672;46.096;14.470;2024-01-15T05:55:08;23.67;;;11.05;;
67867;SDS011;54672;46.096;14.470;2024-01-15T05:57:34;32.85;;;12.63;;
67867;SDS011;54672;46.096;14.470;2024-01-15T06:00:00;46.28;;;16.75;;
67867;SDS011;54672;46.096;14.470;2024-01-15T06:02:25;31.60;;;12.80;;
67867;SDS011;54672;46.096;14.470;2024-01-15T06:04:51;26.05;;;11.00;;
67867;SDS011;54672;46.096;14.470;2024-01-15T06:07:16;23.67;;;10.45;;
67867;SDS011;54672;46.096;14.470;2024-01-15T06:09:42;24.77;;;11.32;;
67867;SDS011;54672;46.096;14.470;2024-01-15T06:12:08;23.42;;;10.85;;
67867;SDS011;54672;46.096;14.470;2024-01-15T06:14:33;25.15;;;11.65;;
67867;SDS011;54672;46.096;14.470;2024-01-15T06:16:59;25.17;;;9.82;;
67867;SDS011;54672;46.096;14.470;2024-01-15T06:19:24;26.40;;;10.98;;
67867;SDS011;54672;46.096;14.470;2024-01-15T06:21:49;23.05;;;10.38;;
67867;SDS011;54672;46.096;14.470;2024-01-15T06:24:15;23.85;;;10.00;;
67867;SDS011;54672;46.096;14.470;2024-01-15T06:26:42;24.75;;;10.60;;
67867;SDS011;54672;46.096;14.470;2024-01-15T06:29:08;20.65;;;9.30;;
67867;SDS011;54672;46.096;14.470;2024-01-15T06:31:34;20.23;;;9.98;;
67867;SDS011;54672;46.096;14.470;2024-01-15T06:33:59;20.90;;;9.75;;
67867;SDS011;54672;46.096;14.470;2024-01-15T06:36:24;25.67;;;10.65;;
67867;SDS011;54672;46.096;14.470;2024-01-15T06:38:50;34.13;;;12.80;;
67867;SDS011;54672;46.096;14.470;2024-01-15T06:41:15;27.08;;;11.95;;
67867;SDS011;54672;46.096;14.470;2024-01-15T06:43:40;24.60;;;11.75;;
67867;SDS011;54672;46.096;14.470;2024-01-15T06:46:06;31.45;;;11.95;;
67867;SDS011;54672;46.096;14.470;2024-01-15T06:48:31;32.30;;;13.02;;
67867;SDS011;54672;46.096;14.470;2024-01-15T06:50:57;29.17;;;12.82;;
67867;SDS011;54672;46.096;14.470;2024-01-15T06:53:22;29.73;;;12.25;;
67867;SDS011;54672;46.096;14.470;2024-01-15T06:55:48;27.52;;;11.75;;
67867;SDS011;54672;46.096;14.470;2024-01-15T06:58:14;22.55;;;9.77;;
67867;SDS011;54672;46.096;14.470;2024-01-15T07:00:39;28.67;;;12.63;;
67867;SDS011;54672;46.096;14.470;2024-01-15T07:03:05;30.40;;;13.13;;
67867;SDS011;54672;46.096;14.470;2024-01-15T07:05:31;26.55;;;12.98;;
67867;SDS011;54672;46.096;14.470;2024-01-15T07:07:57;26.92;;;12.40;;
67867;SDS011;54672;46.096;14.470;2024-01-15T07:10:22;31.70;;;12.85;;
67867;SDS011;54672;46.096;14.470;2024-01-15T07:12:48;24.67;;;11.82;;
67867;SDS011;54672;46.096;14.470;2024-01-15T07:15:13;26.10;;;11.73;;
67867;SDS011;54672;46.096;14.470;2024-01-15T07:17:39;19.80;;;6.68;;
67867;SDS011;54672;46.096;14.470;2024-01-15T07:20:08;24.60;;;11.52;;
67867;SDS011;54672;46.096;14.470;2024-01-15T07:22:37;24.33;;;10.77;;
67867;SDS011;54672;46.096;14.470;2024-01-15T07:25:03;28.90;;;10.93;;
67867;SDS011;54672;46.096;14.470;2024-01-15T07:27:30;17.52;;;7.45;;
67867;SDS011;54672;46.096;14.470;2024-01-15T07:29:56;24.63;;;10.13;;
67867;SDS011;54672;46.096;14.470;2024-01-15T07:32:21;27.90;;;9.43;;
67867;SDS011;54672;46.096;14.470;2024-01-15T07:34:47;26.35;;;11.35;;
67867;SDS011;54672;46.096;14.470;2024-01-15T07:37:12;22.23;;;9.60;;
67867;SDS011;54672;46.096;14.470;2024-01-15T07:39:38;19.73;;;9.35;;
67867;SDS011;54672;46.096;14.470;2024-01-15T07:42:04;13.60;;;6.55;;
67867;SDS011;54672;46.096;14.470;2024-01-15T07:44:30;25.45;;;10.35;;
67867;SDS011;54672;46.096;14.470;2024-01-15T07:46:55;22.35;;;11.20;;
67867;SDS011;54672;46.096;14.470;2024-01-15T07:49:21;29.50;;;12.10;;
67867;SDS011;54672;46.096;14.470;2024-01-15T07:51:48;33.08;;;12.65;;
67867;SDS011;54672;46.096;14.470;2024-01-15T07:54:14;27.83;;;12.50;;
67867;SDS011;54672;46.096;14.470;2024-01-15T07:56:58;23.13;;;11.25;;
67867;SDS011;54672;46.096;14.470;2024-01-15T07:59:26;25.35;;;10.60;;
67867;SDS011;54672;46.096;14.470;2024-01-15T08:01:52;29.40;;;11.80;;
67867;SDS011;54672;46.096;14.470;2024-01-15T08:04:17;19.85;;;8.48;;
67867;SDS011;54672;46.096;14.470;2024-01-15T08:06:44;24.17;;;10.95;;
67867;SDS011;54672;46.096;14.470;2024-01-15T08:09:10;25.85;;;11.35;;
67867;SDS011;54672;46.096;14.470;2024-01-15T08:11:38;26.08;;;11.25;;
67867;SDS011;54672;46.096;14.470;2024-01-15T08:14:05;24.30;;;13.30;;
67867;SDS011;54672;46.096;14.470;2024-01-15T08:16:30;27.77;;;12.98;;
67867;SDS011;54672;46.096;14.470;2024-01-15T08:18:56;30.83;;;12.13;;
67867;SDS011;54672;46.096;14.470;2024-01-15T08:21:21;25.38;;;11.35;;
67867;SDS011;54672;46.096;14.470;2024-01-15T08:23:47;19.08;;;8.98;;
67867;SDS011;54672;46.096;14.470;2024-01-15T08:26:12;24.08;;;10.07;;
67867;SDS011;54672;46.096;14.470;2024-01-15T08:28:38;25.73;;;10.52;;
67867;SDS011;54672;46.096;14.470;2024-01-15T08:31:03;21.70;;;8.80;;
67867;SDS011;54672;46.096;14.470;2024-01-15T08:33:29;19.52;;;8.93;;
67867;SDS011;54672;46.096;14.470;2024-01-15T08:35:54;22.70;;;9.15;;
67867;SDS011;54672;46.096;14.470;2024-01-15T08:38:20;27.67;;;9.98;;
67867;SDS011;54672;46.096;14.470;2024-01-15T08:40:45;23.00;;;9.27;;
67867;SDS011;54672;46.096;14.470;2024-01-15T08:43:11;19.08;;;8.23;;
67867;SDS011;54672;46.096;14.470;2024-01-15T08:45:36;25.10;;;10.52;;
67867;SDS011;54672;46.096;14.470;2024-01-15T08:48:02;21.17;;;9.88;;
67867;SDS011;54672;46.096;14.470;2024-01-15T08:50:28;20.63;;;8.38;;
67867;SDS011;54672;46.096;14.470;2024-01-15T08:52:54;19.52;;;8.57;;
67867;SDS011;54672;46.096;14.470;2024-01-15T08:55:20;21.02;;;9.48;;
67867;SDS011;54672;46.096;14.470;2024-01-15T08:57:47;15.50;;;6.43;;
67867;SDS011;54672;46.096;14.470;2024-01-15T09:00:13;16.48;;;7.00;;
67867;SDS011;54672;46.096;14.470;2024-01-15T09:02:39;21.13;;;8.10;;
67867;SDS011;54672;46.096;14.470;2024-01-15T09:05:04;24.90;;;9.13;;
67867;SDS011;54672;46.096;14.470;2024-01-15T09:07:30;22.58;;;9.70;;
67867;SDS011;54672;46.096;14.470;2024-01-15T09:09:55;17.42;;;8.25;;
67867;SDS011;54672;46.096;14.470;2024-01-15T09:12:21;19.35;;;9.20;;
67867;SDS011;54672;46.096;14.470;2024-01-15T09:14:47;26.88;;;10.80;;
67867;SDS011;54672;46.096;14.470;2024-01-15T09:17:13;25.98;;;11.23;;
67867;SDS011;54672;46.096;14.470;2024-01-15T09:19:38;22.35;;;10.57;;
67867;SDS011;54672;46.096;14.470;2024-01-15T09:22:07;28.77;;;10.75;;
67867;SDS011;54672;46.096;14.470;2024-01-15T09:24:33;23.95;;;10.20;;
67867;SDS011;54672;46.096;14.470;2024-01-15T09:26:58;23.42;;;10.15;;
67867;SDS011;54672;46.096;14.470;2024-01-15T09:29:24;25.17;;;10.40;;
67867;SDS011;54672;46.096;14.470;2024-01-15T09:31:49;16.55;;;7.28;;
67867;SDS011;54672;46.096;14.470;2024-01-15T09:34:15;23.40;;;9.77;;
67867;SDS011;54672;46.096;14.470;2024-01-15T09:36:41;22.02;;;9.35;;
67867;SDS011;54672;46.096;14.470;2024-01-15T09:39:08;24.05;;;9.23;;
67867;SDS011;54672;46.096;14.470;2024-01-15T09:41:37;18.42;;;7.82;;
67867;SDS011;54672;46.096;14.470;2024-01-15T09:44:03;22.65;;;8.90;;
67867;SDS011;54672;46.096;14.470;2024-01-15T09:46:30;18.92;;;8.75;;
67867;SDS011;54672;46.096;14.470;2024-01-15T09:48:57;17.88;;;7.50;;
67867;SDS011;54672;46.096;14.470;2024-01-15T09:51:23;20.02;;;8.82;;
67867;SDS011;54672;46.096;14.470;2024-01-15T09:53:49;19.00;;;8.05;;
67867;SDS011;54672;46.096;14.470;2024-01-15T09:56:15;22.20;;;8.85;;
67867;SDS011;54672;46.096;14.470;2024-01-15T09:58:41;20.00;;;9.05;;
67867;SDS011;54672;46.096;14.470;2024-01-15T10:01:07;23.60;;;9.32;;
67867;SDS011;54672;46.096;14.470;2024-01-15T10:03:33;16.88;;;8.70;;
67867;SDS011;54672;46.096;14.470;2024-01-15T10:05:59;19.08;;;9.65;;
67867;SDS011;54672;46.096;14.470;2024-01-15T10:08:25;18.33;;;9.00;;
67867;SDS011;54672;46.096;14.470;2024-01-15T10:10:50;19.75;;;8.38;;
67867;SDS011;54672;46.096;14.470;2024-01-15T10:13:16;19.63;;;9.45;;
67867;SDS011;54672;46.096;14.470;2024-01-15T10:15:45;21.95;;;8.93;;
67867;SDS011;54672;46.096;14.470;2024-01-15T10:18:12;21.70;;;9.80;;
67867;SDS011;54672;46.096;14.470;2024-01-15T10:20:37;16.58;;;6.53;;
67867;SDS011;54672;46.096;14.470;2024-01-15T10:23:03;25.10;;;10.30;;
67867;SDS011;54672;46.096;14.470;2024-01-15T10:25:29;23.23;;;9.73;;
67867;SDS011;54672;46.096;14.470;2024-01-15T10:28:03;20.75;;;9.25;;
67867;SDS011;54672;46.096;14.470;2024-01-15T10:30:29;22.23;;;8.88;;
67867;SDS011;54672;46.096;14.470;2024-01-15T10:33:02;23.30;;;10.25;;
67867;SDS011;54672;46.096;14.470;2024-01-15T10:35:32;23.08;;;10.10;;
67867;SDS011;54672;46.096;14.470;2024-01-15T10:37:59;19.15;;;9.10;;
67867;SDS011;54672;46.096;14.470;2024-01-15T10:40:25;19.35;;;7.60;;
67867;SDS011;54672;46.096;14.470;2024-01-15T10:42:50;19.70;;;7.95;;
67867;SDS011;54672;46.096;14.470;2024-01-15T10:45:16;19.85;;;8.88;;
67867;SDS011;54672;46.096;14.470;2024-01-15T10:47:42;21.58;;;9.75;;
67867;SDS011;54672;46.096;14.470;2024-01-15T10:50:08;25.25;;;9.77;;
67867;SDS011;54672;46.096;14.470;2024-01-15T10:52:38;18.73;;;9.25;;
67867;SDS011;54672;46.096;14.470;2024-01-15T10:55:06;24.25;;;10.00;;
67867;SDS011;54672;46.096;14.470;2024-01-15T10:57:33;24.75;;;10.65;;
67867;SDS011;54672;46.096;14.470;2024-01-15T11:00:00;19.02;;;8.88;;
67867;SDS011;54672;46.096;14.470;2024-01-15T11:02:28;18.23;;;8.60;;
67867;SDS011;54672;46.096;14.470;2024-01-15T11:04:54;19.23;;;8.95;;
67867;SDS011;54672;46.096;14.470;2024-01-15T11:07:21;22.95;;;10.13;;
67867;SDS011;54672;46.096;14.470;2024-01-15T11:09:49;27.88;;;10.40;;
67867;SDS011;54672;46.096;14.470;2024-01-15T11:12:15;19.70;;;8.95;;
67867;SDS011;54672;46.096;14.470;2024-01-15T11:14:46;24.00;;;9.60;;
67867;SDS011;54672;46.096;14.470;2024-01-15T11:17:13;23.80;;;10.27;;
67867;SDS011;54672;46.096;14.470;2024-01-15T11:22:08;22.15;;;9.70;;
67867;SDS011;54672;46.096;14.470;2024-01-15T11:24:41;22.50;;;9.60;;
67867;SDS011;54672;46.096;14.470;2024-01-15T11:27:09;21.80;;;10.18;;
67867;SDS011;54672;46.096;14.470;2024-01-15T11:29:35;26.83;;;12.25;;
67867;SDS011;54672;46.096;14.470;2024-01-15T11:32:10;24.65;;;11.30;;
67867;SDS011;54672;46.096;14.470;2024-01-15T11:37:28;21.85;;;11.55;;
67867;SDS011;54672;46.096;14.470;2024-01-15T11:40:00;25.60;;;11.02;;
67867;SDS011;54672;46.096;14.470;2024-01-15T11:42:28;24.05;;;10.52;;
67867;SDS011;54672;46.096;14.470;2024-01-15T11:44:55;23.08;;;10.10;;
67867;SDS011;54672;46.096;14.470;2024-01-15T11:47:30;23.27;;;10.95;;
67867;SDS011;54672;46.096;14.470;2024-01-15T11:50:13;22.00;;;9.25;;
67867;SDS011;54672;46.096;14.470;2024-01-15T11:52:39;22.95;;;10.23;;
67867;SDS011;54672;46.096;14.470;2024-01-15T11:55:19;22.58;;;9.68;;
67867;SDS011;54672;46.096;14.470;2024-01-15T11:57:51;20.90;;;9.52;;
67867;SDS011;54672;46.096;14.470;2024-01-15T12:00:19;19.83;;;8.73;;
67867;SDS011;54672;46.096;14.470;2024-01-15T12:02:46;21.20;;;9.05;;
67867;SDS011;54672;46.096;14.470;2024-01-15T12:05:14;19.58;;;9.90;;
67867;SDS011;54672;46.096;14.470;2024-01-15T12:07:40;24.20;;;10.80;;
67867;SDS011;54672;46.096;14.470;2024-01-15T12:10:14;22.08;;;10.75;;
67867;SDS011;54672;46.096;14.470;2024-01-15T12:15:38;23.52;;;10.60;;
67867;SDS011;54672;46.096;14.470;2024-01-15T12:18:07;24.83;;;12.00;;
67867;SDS011;54672;46.096;14.470;2024-01-15T12:20:33;26.65;;;11.32;;
67867;SDS011;54672;46.096;14.470;2024-01-15T12:22:59;22.58;;;10.52;;
67867;SDS011;54672;46.096;14.470;2024-01-15T12:25:25;22.00;;;10.20;;
67867;SDS011;54672;46.096;14.470;2024-01-15T12:27:52;20.90;;;9.30;;
67867;SDS011;54672;46.096;14.470;2024-01-15T12:30:19;18.70;;;8.50;;
67867;SDS011;54672;46.096;14.470;2024-01-15T12:32:44;21.05;;;9.48;;
67867;SDS011;54672;46.096;14.470;2024-01-15T12:35:12;17.92;;;8.77;;
67867;SDS011;54672;46.096;14.470;2024-01-15T12:37:41;20.48;;;10.23;;
67867;SDS011;54672;46.096;14.470;2024-01-15T12:40:08;21.23;;;9.70;;
67867;SDS011;54672;46.096;14.470;2024-01-15T12:42:37;21.65;;;8.98;;
67867;SDS011;54672;46.096;14.470;2024-01-15T12:45:03;20.73;;;10.25;;
67867;SDS011;54672;46.096;14.470;2024-01-15T12:47:30;29.42;;;10.30;;
67867;SDS011;54672;46.096;14.470;2024-01-15T12:49:57;20.17;;;9.98;;
67867;SDS011;54672;46.096;14.470;2024-01-15T12:52:26;23.80;;;10.35;;
67867;SDS011;54672;46.096;14.470;2024-01-15T12:54:52;27.90;;;12.15;;
67867;SDS011;54672;46.096;14.470;2024-01-15T12:57:17;26.50;;;11.25;;
67867;SDS011;54672;46.096;14.470;2024-01-15T12:59:45;28.13;;;13.43;;
67867;SDS011;54672;46.096;14.470;2024-01-15T13:02:11;28.25;;;12.70;;
67867;SDS011;54672;46.096;14.470;2024-01-15T13:04:40;32.28;;;13.07;;
67867;SDS011;54672;46.096;14.470;2024-01-15T13:07:06;27.52;;;12.75;;
67867;SDS011;54672;46.096;14.470;2024-01-15T13:09:32;32.97;;;14.02;;
67867;SDS011;54672;46.096;14.470;2024-01-15T13:11:58;31.80;;;14.35;;
67867;SDS011;54672;46.096;14.470;2024-01-15T13:14:23;33.78;;;15.48;;
67867;SDS011;54672;46.096;14.470;2024-01-15T13:16:49;34.92;;;15.95;;
67867;SDS011;54672;46.096;14.470;2024-01-15T13:19:14;39.05;;;18.10;;
67867;SDS011;54672;46.096;14.470;2024-01-15T13:21:40;38.58;;;18.15;;
67867;SDS011;54672;46.096;14.470;2024-01-15T13:24:06;37.80;;;18.05;;
67867;SDS011;54672;46.096;14.470;2024-01-15T13:26:32;40.53;;;17.08;;
67867;SDS011;54672;46.096;14.470;2024-01-15T13:28:59;37.47;;;16.25;;
67867;SDS011;54672;46.096;14.470;2024-01-15T13:31:28;33.72;;;16.33;;
67867;SDS011;54672;46.096;14.470;2024-01-15T13:33:54;35.90;;;16.55;;
67867;SDS011;54672;46.096;14.470;2024-01-15T13:36:21;40.88;;;17.83;;
67867;SDS011;54672;46.096;14.470;2024-01-15T13:38:48;44.47;;;18.42;;
67867;SDS011;54672;46.096;14.470;2024-01-15T13:41:18;47.17;;;20.15;;
67867;SDS011;54672;46.096;14.470;2024-01-15T13:43:45;41.83;;;19.17;;
67867;SDS011;54672;46.096;14.470;2024-01-15T13:46:11;45.70;;;20.60;;
67867;SDS011;54672;46.096;14.470;2024-01-15T13:48:36;36.95;;;16.27;;
67867;SDS011;54672;46.096;14.470;2024-01-15T13:51:02;44.28;;;18.08;;
67867;SDS011;54672;46.096;14.470;2024-01-15T13:53:27;55.92;;;23.75;;
67867;SDS011;54672;46.096;14.470;2024-01-15T13:55:53;42.03;;;18.23;;
67867;SDS011;54672;46.096;14.470;2024-01-15T13:58:18;38.05;;;16.58;;
67867;SDS011;54672;46.096;14.470;2024-01-15T14:00:44;41.28;;;16.50;;
67867;SDS011;54672;46.096;14.470;2024-01-15T14:03:09;29.08;;;14.98;;
67867;SDS011;54672;46.096;14.470;2024-01-15T14:05:34;44.80;;;18.73;;
67867;SDS011;54672;46.096;14.470;2024-01-15T14:08:00;36.92;;;15.65;;
67867;SDS011;54672;46.096;14.470;2024-01-15T14:10:25;37.58;;;17.30;;
67867;SDS011;54672;46.096;14.470;2024-01-15T14:12:51;34.35;;;15.95;;
67867;SDS011;54672;46.096;14.470;2024-01-15T14:15:16;35.38;;;16.15;;
67867;SDS011;54672;46.096;14.470;2024-01-15T14:17:42;38.35;;;16.55;;